sensor_id;sensor_type;location;lat;lon;timestamp;temperature;humidity
43651;DHT22;29247;50.944;5.382;2023-03-18T00:00:48;14.10;72.00
43651;DHT22;29247;50.944;5.382;2023-03-18T00:03:14;14.20;72.30
43651;DHT22;29247;50.944;5.382;2023-03-18T00:05:40;14.10;72.50
43651;DHT22;29247;50.944;5.382;2023-03-18T00:08:09;14.10;72.60
43651;DHT22;29247;50.944;5.382;2023-03-18T00:10:40;14.10;72.80
43651;DHT22;29247;50.944;5.382;2023-03-18T00:13:08;14.10;73.00
43651;DHT22;29247;50.944;5.382;2023-03-18T00:15:34;14.20;73.40
43651;DHT22;29247;50.944;5.382;2023-03-18T00:18:01;14.20;73.70
43651;DHT22;29247;50.944;5.382;2023-03-18T00:20:30;14.20;74.10
43651;DHT22;29247;50.944;5.382;2023-03-18T00:23:10;14.20;74.50
43651;DHT22;29247;50.944;5.382;2023-03-18T00:25:39;14.20;74.90
43651;DHT22;29247;50.944;5.382;2023-03-18T00:28:06;14.20;75.40
43651;DHT22;29247;50.944;5.382;2023-03-18T00:30:36;14.20;75.30
43651;DHT22;29247;50.944;5.382;2023-03-18T00:33:07;14.20;75.90
43651;DHT22;29247;50.944;5.382;2023-03-18T00:35:33;14.20;76.30
43651;DHT22;29247;50.944;5.382;2023-03-18T00:38:01;14.10;76.70
43651;DHT22;29247;50.944;5.382;2023-03-18T00:40:32;14.10;76.90
43651;DHT22;29247;50.944;5.382;2023-03-18T00:43:22;14.10;77.20
43651;DHT22;29247;50.944;5.382;2023-03-18T00:45:54;14.10;77.40
43651;DHT22;29247;50.944;5.382;2023-03-18T00:48:25;14.10;77.60
43651;DHT22;29247;50.944;5.382;2023-03-18T00:50:54;14.10;77.80
43651;DHT22;29247;50.944;5.382;2023-03-18T00:53:20;14.00;77.90
43651;DHT22;29247;50.944;5.382;2023-03-18T00:55:48;14.00;78.20
43651;DHT22;29247;50.944;5.382;2023-03-18T00:58:13;14.00;78.40
43651;DHT22;29247;50.944;5.382;2023-03-18T01:00:39;14.00;78.50
43651;DHT22;29247;50.944;5.382;2023-03-18T01:03:11;14.00;78.70
43651;DHT22;29247;50.944;5.382;2023-03-18T01:05:41;13.90;78.80
43651;DHT22;29247;50.944;5.382;2023-03-18T01:08:08;13.90;79.00
43651;DHT22;29247;50.944;5.382;2023-03-18T01:10:34;13.90;79.10
43651;DHT22;29247;50.944;5.382;2023-03-18T01:13:01;13.90;79.30
43651;DHT22;29247;50.944;5.382;2023-03-18T01:15:27;13.80;79.40
43651;DHT22;29247;50.944;5.382;2023-03-18T01:17:56;13.80;79.60
43651;DHT22;29247;50.944;5.382;2023-03-18T01:20:25;13.80;79.90
43651;DHT22;29247;50.944;5.382;2023-03-18T01:22:51;13.80;80.00
43651;DHT22;29247;50.944;5.382;2023-03-18T01:25:17;13.80;80.10
43651;DHT22;29247;50.944;5.382;2023-03-18T01:27:43;13.80;80.30
43651;DHT22;29247;50.944;5.382;2023-03-18T01:30:09;13.70;80.40
43651;DHT22;29247;50.944;5.382;2023-03-18T01:32:35;13.70;80.60
43651;DHT22;29247;50.944;5.382;2023-03-18T01:35:02;13.70;80.80
43651;DHT22;29247;50.944;5.382;2023-03-18T01:37:28;13.70;81.00
43651;DHT22;29247;50.944;5.382;2023-03-18T01:39:56;13.70;81.20
43651;DHT22;29247;50.944;5.382;2023-03-18T01:42:27;13.70;81.30
43651;DHT22;29247;50.944;5.382;2023-03-18T01:45:16;13.60;81.40
43651;DHT22;29247;50.944;5.382;2023-03-18T01:47:44;13.60;81.50
43651;DHT22;29247;50.944;5.382;2023-03-18T01:50:16;13.60;81.20
43651;DHT22;29247;50.944;5.382;2023-03-18T01:52:44;13.60;81.60
43651;DHT22;29247;50.944;5.382;2023-03-18T01:55:17;13.60;82.00
43651;DHT22;29247;50.944;5.382;2023-03-18T01:57:44;13.60;82.20
43651;DHT22;29247;50.944;5.382;2023-03-18T02:00:10;13.60;82.40
43651;DHT22;29247;50.944;5.382;2023-03-18T02:02:43;13.60;82.50
43651;DHT22;29247;50.944;5.382;2023-03-18T02:05:12;13.50;82.50
43651;DHT22;29247;50.944;5.382;2023-03-18T02:07:42;13.60;82.70
43651;DHT22;29247;50.944;5.382;2023-03-18T02:10:14;13.60;82.80
43651;DHT22;29247;50.944;5.382;2023-03-18T02:12:44;13.50;82.80
43651;DHT22;29247;50.944;5.382;2023-03-18T02:15:14;13.60;83.00
43651;DHT22;29247;50.944;5.382;2023-03-18T02:17:44;13.50;83.10
43651;DHT22;29247;50.944;5.382;2023-03-18T02:26:11;13.50;84.10
43651;DHT22;29247;50.944;5.382;2023-03-18T02:28:41;13.50;83.30
43651;DHT22;29247;50.944;5.382;2023-03-18T02:31:13;13.50;83.50
43651;DHT22;29247;50.944;5.382;2023-03-18T02:33:40;13.50;83.70
43651;DHT22;29247;50.944;5.382;2023-03-18T02:36:28;13.50;83.80
43651;DHT22;29247;50.944;5.382;2023-03-18T02:38:56;13.50;84.00
43651;DHT22;29247;50.944;5.382;2023-03-18T02:41:28;13.50;84.00
43651;DHT22;29247;50.944;5.382;2023-03-18T02:43:54;13.50;84.10
43651;DHT22;29247;50.944;5.382;2023-03-18T02:48:56;13.50;84.30
43651;DHT22;29247;50.944;5.382;2023-03-18T02:51:26;13.50;84.40
43651;DHT22;29247;50.944;5.382;2023-03-18T02:54:00;13.50;84.50
43651;DHT22;29247;50.944;5.382;2023-03-18T02:56:27;13.50;84.70
43651;DHT22;29247;50.944;5.382;2023-03-18T02:58:53;13.50;84.70
43651;DHT22;29247;50.944;5.382;2023-03-18T03:01:22;13.50;84.80
43651;DHT22;29247;50.944;5.382;2023-03-18T03:03:48;13.50;84.80
43651;DHT22;29247;50.944;5.382;2023-03-18T03:06:14;13.50;84.90
43651;DHT22;29247;50.944;5.382;2023-03-18T03:08:41;13.50;84.90
43651;DHT22;29247;50.944;5.382;2023-03-18T03:11:07;13.50;84.90
43651;DHT22;29247;50.944;5.382;2023-03-18T03:13:40;13.50;85.00
43651;DHT22;29247;50.944;5.382;2023-03-18T03:16:06;13.50;85.00
43651;DHT22;29247;50.944;5.382;2023-03-18T03:18:33;13.50;85.00
43651;DHT22;29247;50.944;5.382;2023-03-18T03:21:00;13.50;85.10
43651;DHT22;29247;50.944;5.382;2023-03-18T03:23:29;13.50;85.20
43651;DHT22;29247;50.944;5.382;2023-03-18T03:25:55;13.50;85.20
43651;DHT22;29247;50.944;5.382;2023-03-18T03:28:21;13.50;85.20
43651;DHT22;29247;50.944;5.382;2023-03-18T03:30:50;13.50;85.40
43651;DHT22;29247;50.944;5.382;2023-03-18T03:33:19;13.50;85.40
43651;DHT22;29247;50.944;5.382;2023-03-18T03:35:47;13.50;85.50
43651;DHT22;29247;50.944;5.382;2023-03-18T03:38:13;13.50;85.50
43651;DHT22;29247;50.944;5.382;2023-03-18T03:40:41;13.50;85.50
43651;DHT22;29247;50.944;5.382;2023-03-18T03:43:11;13.50;85.50
43651;DHT22;29247;50.944;5.382;2023-03-18T03:45:40;13.50;85.50
43651;DHT22;29247;50.944;5.382;2023-03-18T03:48:07;13.50;85.60
43651;DHT22;29247;50.944;5.382;2023-03-18T03:50:36;13.50;85.60
43651;DHT22;29247;50.944;5.382;2023-03-18T03:53:03;13.40;85.60
43651;DHT22;29247;50.944;5.382;2023-03-18T03:55:29;13.40;85.60
43651;DHT22;29247;50.944;5.382;2023-03-18T03:57:56;13.40;85.70
43651;DHT22;29247;50.944;5.382;2023-03-18T04:00:22;13.40;85.70
43651;DHT22;29247;50.944;5.382;2023-03-18T04:02:53;13.40;85.70
43651;DHT22;29247;50.944;5.382;2023-03-18T04:05:21;13.40;85.70
43651;DHT22;29247;50.944;5.382;2023-03-18T04:07:48;13.40;85.80
43651;DHT22;29247;50.944;5.382;2023-03-18T04:10:18;13.40;85.80
43651;DHT22;29247;50.944;5.382;2023-03-18T04:12:45;13.40;85.90
43651;DHT22;29247;50.944;5.382;2023-03-18T04:15:12;13.40;85.90
43651;DHT22;29247;50.944;5.382;2023-03-18T04:17:39;13.40;85.90
43651;DHT22;29247;50.944;5.382;2023-03-18T04:20:08;13.30;86.00
43651;DHT22;29247;50.944;5.382;2023-03-18T04:22:34;13.30;86.00
43651;DHT22;29247;50.944;5.382;2023-03-18T04:25:03;13.30;86.10
43651;DHT22;29247;50.944;5.382;2023-03-18T04:27:32;13.30;86.10
43651;DHT22;29247;50.944;5.382;2023-03-18T04:29:58;13.30;86.10
43651;DHT22;29247;50.944;5.382;2023-03-18T04:32:25;13.30;86.20
43651;DHT22;29247;50.944;5.382;2023-03-18T04:34:50;13.30;86.20
43651;DHT22;29247;50.944;5.382;2023-03-18T04:37:16;13.30;86.30
43651;DHT22;29247;50.944;5.382;2023-03-18T04:39:46;13.30;86.30
43651;DHT22;29247;50.944;5.382;2023-03-18T04:42:12;13.30;86.30
43651;DHT22;29247;50.944;5.382;2023-03-18T04:44:40;13.30;86.40
43651;DHT22;29247;50.944;5.382;2023-03-18T04:47:08;13.30;86.50
43651;DHT22;29247;50.944;5.382;2023-03-18T04:49:37;13.30;86.50
43651;DHT22;29247;50.944;5.382;2023-03-18T04:52:07;13.30;86.50
43651;DHT22;29247;50.944;5.382;2023-03-18T04:54:33;13.30;86.50
43651;DHT22;29247;50.944;5.382;2023-03-18T04:57:01;13.30;86.60
43651;DHT22;29247;50.944;5.382;2023-03-18T04:59:30;13.30;86.60
43651;DHT22;29247;50.944;5.382;2023-03-18T05:01:58;13.20;86.60
43651;DHT22;29247;50.944;5.382;2023-03-18T05:04:24;13.20;86.60
43651;DHT22;29247;50.944;5.382;2023-03-18T05:06:50;13.20;87.40
43651;DHT22;29247;50.944;5.382;2023-03-18T05:09:16;13.20;86.60
43651;DHT22;29247;50.944;5.382;2023-03-18T05:11:43;13.20;87.20
43651;DHT22;29247;50.944;5.382;2023-03-18T05:14:11;13.20;86.30
43651;DHT22;29247;50.944;5.382;2023-03-18T05:16:38;13.10;86.10
43651;DHT22;29247;50.944;5.382;2023-03-18T05:19:06;13.10;85.90
43651;DHT22;29247;50.944;5.382;2023-03-18T05:21:32;13.10;85.90
43651;DHT22;29247;50.944;5.382;2023-03-18T05:24:00;13.00;85.70
43651;DHT22;29247;50.944;5.382;2023-03-18T05:26:27;12.90;85.70
43651;DHT22;29247;50.944;5.382;2023-03-18T05:28:52;12.90;85.70
43651;DHT22;29247;50.944;5.382;2023-03-18T05:31:18;12.90;85.60
43651;DHT22;29247;50.944;5.382;2023-03-18T05:33:44;12.80;85.50
43651;DHT22;29247;50.944;5.382;2023-03-18T05:36:10;12.80;85.60
43651;DHT22;29247;50.944;5.382;2023-03-18T05:38:38;12.70;85.60
43651;DHT22;29247;50.944;5.382;2023-03-18T05:41:07;12.70;85.60
43651;DHT22;29247;50.944;5.382;2023-03-18T05:43:35;12.60;85.60
43651;DHT22;29247;50.944;5.382;2023-03-18T05:46:03;12.60;85.50
43651;DHT22;29247;50.944;5.382;2023-03-18T05:48:32;12.50;85.50
43651;DHT22;29247;50.944;5.382;2023-03-18T05:50:58;12.50;85.50
43651;DHT22;29247;50.944;5.382;2023-03-18T05:53:24;12.50;85.50
43651;DHT22;29247;50.944;5.382;2023-03-18T05:55:50;12.40;85.60
43651;DHT22;29247;50.944;5.382;2023-03-18T05:58:16;12.40;85.60
43651;DHT22;29247;50.944;5.382;2023-03-18T06:00:43;12.30;85.70
43651;DHT22;29247;50.944;5.382;2023-03-18T06:03:09;12.30;85.70
43651;DHT22;29247;50.944;5.382;2023-03-18T06:05:37;12.30;85.70
43651;DHT22;29247;50.944;5.382;2023-03-18T06:08:06;12.30;85.70
43651;DHT22;29247;50.944;5.382;2023-03-18T06:10:32;12.20;85.80
43651;DHT22;29247;50.944;5.382;2023-03-18T06:13:00;12.20;85.80
43651;DHT22;29247;50.944;5.382;2023-03-18T06:15:28;12.20;85.90
43651;DHT22;29247;50.944;5.382;2023-03-18T06:17:57;12.10;85.90
43651;DHT22;29247;50.944;5.382;2023-03-18T06:20:23;12.10;85.90
43651;DHT22;29247;50.944;5.382;2023-03-18T06:22:49;12.10;86.10
43651;DHT22;29247;50.944;5.382;2023-03-18T06:25:18;12.10;86.10
43651;DHT22;29247;50.944;5.382;2023-03-18T06:27:52;12.10;86.10
43651;DHT22;29247;50.944;5.382;2023-03-18T06:30:18;12.00;86.20
43651;DHT22;29247;50.944;5.382;2023-03-18T06:32:43;12.00;86.10
43651;DHT22;29247;50.944;5.382;2023-03-18T06:35:10;12.00;86.00
43651;DHT22;29247;50.944;5.382;2023-03-18T06:37:40;12.00;86.00
43651;DHT22;29247;50.944;5.382;2023-03-18T06:40:07;11.90;86.10
43651;DHT22;29247;50.944;5.382;2023-03-18T06:42:33;11.90;86.20
43651;DHT22;29247;50.944;5.382;2023-03-18T06:45:02;11.90;86.30
43651;DHT22;29247;50.944;5.382;2023-03-18T06:47:28;11.90;86.30
43651;DHT22;29247;50.944;5.382;2023-03-18T06:49:54;11.90;86.10
43651;DHT22;29247;50.944;5.382;2023-03-18T06:52:21;11.80;86.20
43651;DHT22;29247;50.944;5.382;2023-03-18T06:54:53;11.80;86.50
43651;DHT22;29247;50.944;5.382;2023-03-18T06:57:21;11.80;86.40
43651;DHT22;29247;50.944;5.382;2023-03-18T06:59:47;11.80;86.50
43651;DHT22;29247;50.944;5.382;2023-03-18T07:02:15;11.80;86.50
43651;DHT22;29247;50.944;5.382;2023-03-18T07:04:44;11.80;86.50
43651;DHT22;29247;50.944;5.382;2023-03-18T07:07:13;11.80;86.70
43651;DHT22;29247;50.944;5.382;2023-03-18T07:09:39;11.90;86.80
43651;DHT22;29247;50.944;5.382;2023-03-18T07:12:11;11.90;86.90
43651;DHT22;29247;50.944;5.382;2023-03-18T07:14:41;11.90;87.00
43651;DHT22;29247;50.944;5.382;2023-03-18T07:17:08;11.90;86.90
43651;DHT22;29247;50.944;5.382;2023-03-18T07:19:34;11.90;87.10
43651;DHT22;29247;50.944;5.382;2023-03-18T07:22:02;11.90;87.30
43651;DHT22;29247;50.944;5.382;2023-03-18T07:24:29;12.00;87.70
43651;DHT22;29247;50.944;5.382;2023-03-18T07:26:57;12.10;87.80
43651;DHT22;29247;50.944;5.382;2023-03-18T07:29:26;12.10;88.00
43651;DHT22;29247;50.944;5.382;2023-03-18T07:31:52;12.20;88.10
43651;DHT22;29247;50.944;5.382;2023-03-18T07:34:17;12.30;88.10
43651;DHT22;29247;50.944;5.382;2023-03-18T07:36:46;12.40;88.10
43651;DHT22;29247;50.944;5.382;2023-03-18T07:39:14;12.50;88.20
43651;DHT22;29247;50.944;5.382;2023-03-18T07:41:40;12.50;88.10
43651;DHT22;29247;50.944;5.382;2023-03-18T07:44:08;12.60;88.00
43651;DHT22;29247;50.944;5.382;2023-03-18T07:46:36;12.60;87.80
43651;DHT22;29247;50.944;5.382;2023-03-18T07:49:06;12.60;87.60
43651;DHT22;29247;50.944;5.382;2023-03-18T07:51:32;12.70;87.60
43651;DHT22;29247;50.944;5.382;2023-03-18T07:53:58;12.70;87.50
43651;DHT22;29247;50.944;5.382;2023-03-18T07:56:24;12.70;87.50
43651;DHT22;29247;50.944;5.382;2023-03-18T07:58:54;12.70;87.50
43651;DHT22;29247;50.944;5.382;2023-03-18T08:01:19;12.80;87.50
43651;DHT22;29247;50.944;5.382;2023-03-18T08:03:47;12.80;87.60
43651;DHT22;29247;50.944;5.382;2023-03-18T08:06:16;12.80;87.60
43651;DHT22;29247;50.944;5.382;2023-03-18T08:08:47;12.80;87.60
43651;DHT22;29247;50.944;5.382;2023-03-18T08:11:15;12.90;87.70
43651;DHT22;29247;50.944;5.382;2023-03-18T08:13:44;12.90;87.80
43651;DHT22;29247;50.944;5.382;2023-03-18T08:16:10;13.00;87.80
43651;DHT22;29247;50.944;5.382;2023-03-18T08:18:36;13.00;87.90
43651;DHT22;29247;50.944;5.382;2023-03-18T08:21:02;13.10;88.00
43651;DHT22;29247;50.944;5.382;2023-03-18T08:23:29;13.20;88.00
43651;DHT22;29247;50.944;5.382;2023-03-18T08:25:57;13.20;87.90
43651;DHT22;29247;50.944;5.382;2023-03-18T08:28:24;13.30;87.90
43651;DHT22;29247;50.944;5.382;2023-03-18T08:30:57;13.40;88.00
43651;DHT22;29247;50.944;5.382;2023-03-18T08:33:26;13.40;88.00
43651;DHT22;29247;50.944;5.382;2023-03-18T08:35:55;13.50;88.00
43651;DHT22;29247;50.944;5.382;2023-03-18T08:38:26;13.60;88.20
43651;DHT22;29247;50.944;5.382;2023-03-18T08:40:52;13.70;88.10
43651;DHT22;29247;50.944;5.382;2023-03-18T08:43:21;13.80;88.10
43651;DHT22;29247;50.944;5.382;2023-03-18T08:45:52;13.90;88.00
43651;DHT22;29247;50.944;5.382;2023-03-18T08:48:19;14.00;88.10
43651;DHT22;29247;50.944;5.382;2023-03-18T08:50:47;14.10;88.20
43651;DHT22;29247;50.944;5.382;2023-03-18T08:53:14;14.30;88.20
43651;DHT22;29247;50.944;5.382;2023-03-18T08:55:45;14.40;88.00
43651;DHT22;29247;50.944;5.382;2023-03-18T08:58:12;14.60;87.70
43651;DHT22;29247;50.944;5.382;2023-03-18T09:00:41;14.80;87.00
43651;DHT22;29247;50.944;5.382;2023-03-18T09:03:07;14.90;86.50
43651;DHT22;29247;50.944;5.382;2023-03-18T09:05:33;15.00;86.30
43651;DHT22;29247;50.944;5.382;2023-03-18T09:07:59;15.20;85.70
43651;DHT22;29247;50.944;5.382;2023-03-18T09:10:26;15.30;85.00
43651;DHT22;29247;50.944;5.382;2023-03-18T09:12:51;15.40;84.20
43651;DHT22;29247;50.944;5.382;2023-03-18T09:15:20;15.50;83.80
43651;DHT22;29247;50.944;5.382;2023-03-18T09:17:46;15.70;83.50
43651;DHT22;29247;50.944;5.382;2023-03-18T09:20:14;15.80;83.10
43651;DHT22;29247;50.944;5.382;2023-03-18T09:22:48;16.00;82.90
43651;DHT22;29247;50.944;5.382;2023-03-18T09:25:17;16.10;82.60
43651;DHT22;29247;50.944;5.382;2023-03-18T09:27:42;16.20;81.80
43651;DHT22;29247;50.944;5.382;2023-03-18T09:30:12;16.30;81.40
43651;DHT22;29247;50.944;5.382;2023-03-18T09:32:42;16.50;81.10
43651;DHT22;29247;50.944;5.382;2023-03-18T09:35:09;16.60;80.20
43651;DHT22;29247;50.944;5.382;2023-03-18T09:37:37;16.70;79.70
43651;DHT22;29247;50.944;5.382;2023-03-18T09:40:06;16.90;79.00
43651;DHT22;29247;50.944;5.382;2023-03-18T09:45:14;17.00;77.50
43651;DHT22;29247;50.944;5.382;2023-03-18T09:48:25;17.10;76.50
43651;DHT22;29247;50.944;5.382;2023-03-18T09:51:03;17.20;76.10
43651;DHT22;29247;50.944;5.382;2023-03-18T09:53:47;17.30;75.00
43651;DHT22;29247;50.944;5.382;2023-03-18T09:56:23;17.30;75.70
43651;DHT22;29247;50.944;5.382;2023-03-18T09:59:03;17.30;73.50
43651;DHT22;29247;50.944;5.382;2023-03-18T10:01:35;17.20;73.20
43651;DHT22;29247;50.944;5.382;2023-03-18T10:04:21;17.10;73.10
43651;DHT22;29247;50.944;5.382;2023-03-18T10:07:01;17.10;73.40
43651;DHT22;29247;50.944;5.382;2023-03-18T10:09:37;17.10;74.00
43651;DHT22;29247;50.944;5.382;2023-03-18T10:12:25;17.10;74.60
43651;DHT22;29247;50.944;5.382;2023-03-18T10:18:33;17.30;75.10
43651;DHT22;29247;50.944;5.382;2023-03-18T10:21:20;17.50;74.00
43651;DHT22;29247;50.944;5.382;2023-03-18T10:26:47;17.50;71.90
43651;DHT22;29247;50.944;5.382;2023-03-18T10:29:51;17.50;71.60
43651;DHT22;29247;50.944;5.382;2023-03-18T10:38:00;17.30;71.10
43651;DHT22;29247;50.944;5.382;2023-03-18T10:40:34;17.20;70.90
43651;DHT22;29247;50.944;5.382;2023-03-18T10:43:05;17.20;71.30
43651;DHT22;29247;50.944;5.382;2023-03-18T10:45:35;17.20;71.60
43651;DHT22;29247;50.944;5.382;2023-03-18T10:48:20;17.20;71.90
43651;DHT22;29247;50.944;5.382;2023-03-18T10:51:15;17.20;71.60
43651;DHT22;29247;50.944;5.382;2023-03-18T10:54:14;17.20;70.90
43651;DHT22;29247;50.944;5.382;2023-03-18T10:56:41;17.10;70.70
43651;DHT22;29247;50.944;5.382;2023-03-18T10:59:14;17.10;70.80
43651;DHT22;29247;50.944;5.382;2023-03-18T11:02:03;17.10;70.80
43651;DHT22;29247;50.944;5.382;2023-03-18T11:04:37;17.10;70.60
43651;DHT22;29247;50.944;5.382;2023-03-18T11:07:11;17.10;70.20
43651;DHT22;29247;50.944;5.382;2023-03-18T11:09:43;17.00;70.00
43651;DHT22;29247;50.944;5.382;2023-03-18T11:12:31;17.00;70.00
43651;DHT22;29247;50.944;5.382;2023-03-18T11:14:57;16.90;69.70
43651;DHT22;29247;50.944;5.382;2023-03-18T11:17:36;16.90;69.40
43651;DHT22;29247;50.944;5.382;2023-03-18T11:22:36;16.80;69.40
43651;DHT22;29247;50.944;5.382;2023-03-18T11:25:22;16.80;69.50
43651;DHT22;29247;50.944;5.382;2023-03-18T11:28:02;16.70;69.60
43651;DHT22;29247;50.944;5.382;2023-03-18T11:30:51;16.60;69.50
43651;DHT22;29247;50.944;5.382;2023-03-18T11:33:24;16.50;69.60
43651;DHT22;29247;50.944;5.382;2023-03-18T11:35:54;16.40;69.80
43651;DHT22;29247;50.944;5.382;2023-03-18T11:38:26;16.40;70.20
43651;DHT22;29247;50.944;5.382;2023-03-18T11:44:01;16.30;70.60
43651;DHT22;29247;50.944;5.382;2023-03-18T11:46:42;16.20;70.70
43651;DHT22;29247;50.944;5.382;2023-03-18T11:49:20;16.20;71.80
43651;DHT22;29247;50.944;5.382;2023-03-18T12:06:20;15.90;72.30
43651;DHT22;29247;50.944;5.382;2023-03-18T12:08:53;15.90;72.60
43651;DHT22;29247;50.944;5.382;2023-03-18T12:11:57;15.90;72.50
43651;DHT22;29247;50.944;5.382;2023-03-18T12:14:36;15.90;73.00
43651;DHT22;29247;50.944;5.382;2023-03-18T12:20:34;15.90;73.60
43651;DHT22;29247;50.944;5.382;2023-03-18T12:26:16;15.90;74.20
43651;DHT22;29247;50.944;5.382;2023-03-18T12:29:10;16.00;74.80
43651;DHT22;29247;50.944;5.382;2023-03-18T12:42:29;16.80;73.70
43651;DHT22;29247;50.944;5.382;2023-03-18T12:45:00;16.90;73.00
43651;DHT22;29247;50.944;5.382;2023-03-18T12:47:43;17.10;72.80
43651;DHT22;29247;50.944;5.382;2023-03-18T12:50:31;17.20;72.20
43651;DHT22;29247;50.944;5.382;2023-03-18T12:53:34;17.30;71.80
43651;DHT22;29247;50.944;5.382;2023-03-18T12:56:20;17.40;71.20
43651;DHT22;29247;50.944;5.382;2023-03-18T12:59:06;17.40;70.40
43651;DHT22;29247;50.944;5.382;2023-03-18T13:01:39;17.50;70.30
43651;DHT22;29247;50.944;5.382;2023-03-18T13:04:11;17.50;70.00
43651;DHT22;29247;50.944;5.382;2023-03-18T13:06:44;17.50;69.60
43651;DHT22;29247;50.944;5.382;2023-03-18T13:12:29;17.50;69.50
43651;DHT22;29247;50.944;5.382;2023-03-18T13:15:10;17.50;69.30
43651;DHT22;29247;50.944;5.382;2023-03-18T13:17:41;17.50;69.10
43651;DHT22;29247;50.944;5.382;2023-03-18T13:20:30;17.50;68.90
43651;DHT22;29247;50.944;5.382;2023-03-18T13:23:25;17.50;68.80
43651;DHT22;29247;50.944;5.382;2023-03-18T13:27:15;17.50;68.30
43651;DHT22;29247;50.944;5.382;2023-03-18T13:29:33;17.50;68.10
43651;DHT22;29247;50.944;5.382;2023-03-18T13:32:28;17.60;68.10
43651;DHT22;29247;50.944;5.382;2023-03-18T13:35:24;17.60;67.80
43651;DHT22;29247;50.944;5.382;2023-03-18T13:43:23;17.60;67.60
43651;DHT22;29247;50.944;5.382;2023-03-18T13:45:52;17.60;67.70
43651;DHT22;29247;50.944;5.382;2023-03-18T13:48:32;17.80;67.90
43651;DHT22;29247;50.944;5.382;2023-03-18T13:50:58;17.80;67.50
43651;DHT22;29247;50.944;5.382;2023-03-18T13:53:43;17.90;67.40
43651;DHT22;29247;50.944;5.382;2023-03-18T13:59:06;18.00;66.30
43651;DHT22;29247;50.944;5.382;2023-03-18T14:01:55;18.00;65.90
43651;DHT22;29247;50.944;5.382;2023-03-18T14:04:30;18.10;65.90
43651;DHT22;29247;50.944;5.382;2023-03-18T14:07:17;18.20;64.80
43651;DHT22;29247;50.944;5.382;2023-03-18T14:15:36;18.20;63.10
43651;DHT22;29247;50.944;5.382;2023-03-18T14:18:14;18.20;63.30
43651;DHT22;29247;50.944;5.382;2023-03-18T14:20:42;18.30;62.90
43651;DHT22;29247;50.944;5.382;2023-03-18T14:23:32;18.30;62.60
43651;DHT22;29247;50.944;5.382;2023-03-18T14:26:16;18.30;62.80
43651;DHT22;29247;50.944;5.382;2023-03-18T14:28:47;18.30;62.70
43651;DHT22;29247;50.944;5.382;2023-03-18T14:31:17;18.40;62.10
43651;DHT22;29247;50.944;5.382;2023-03-18T14:33:57;18.50;61.80
43651;DHT22;29247;50.944;5.382;2023-03-18T14:36:43;18.40;61.30
43651;DHT22;29247;50.944;5.382;2023-03-18T14:39:30;18.40;61.10
43651;DHT22;29247;50.944;5.382;2023-03-18T14:41:59;18.40;60.90
43651;DHT22;29247;50.944;5.382;2023-03-18T14:44:44;18.30;60.50
43651;DHT22;29247;50.944;5.382;2023-03-18T14:47:25;18.30;60.00
43651;DHT22;29247;50.944;5.382;2023-03-18T14:49:59;18.10;59.90
43651;DHT22;29247;50.944;5.382;2023-03-18T14:52:39;18.00;59.90
43651;DHT22;29247;50.944;5.382;2023-03-18T14:55:18;18.00;60.00
43651;DHT22;29247;50.944;5.382;2023-03-18T14:57:45;18.00;60.40
43651;DHT22;29247;50.944;5.382;2023-03-18T15:00:16;18.00;60.40
43651;DHT22;29247;50.944;5.382;2023-03-18T15:02:42;17.90;60.50
43651;DHT22;29247;50.944;5.382;2023-03-18T15:05:17;17.90;60.60
43651;DHT22;29247;50.944;5.382;2023-03-18T15:07:50;17.90;60.30
43651;DHT22;29247;50.944;5.382;2023-03-18T15:10:23;17.80;60.30
43651;DHT22;29247;50.944;5.382;2023-03-18T15:13:17;17.80;60.70
43651;DHT22;29247;50.944;5.382;2023-03-18T15:15:46;17.70;60.90
43651;DHT22;29247;50.944;5.382;2023-03-18T15:18:27;17.70;60.90
43651;DHT22;29247;50.944;5.382;2023-03-18T15:21:06;17.70;60.80
43651;DHT22;29247;50.944;5.382;2023-03-18T15:23:39;17.70;61.00
43651;DHT22;29247;50.944;5.382;2023-03-18T15:26:27;17.80;61.30
43651;DHT22;29247;50.944;5.382;2023-03-18T15:28:59;17.80;61.00
43651;DHT22;29247;50.944;5.382;2023-03-18T15:31:31;17.90;60.50
43651;DHT22;29247;50.944;5.382;2023-03-18T15:34:28;17.90;60.10
43651;DHT22;29247;50.944;5.382;2023-03-18T15:36:54;17.90;59.90
43651;DHT22;29247;50.944;5.382;2023-03-18T15:39:41;17.90;59.60
43651;DHT22;29247;50.944;5.382;2023-03-18T15:42:19;17.80;59.40
43651;DHT22;29247;50.944;5.382;2023-03-18T15:44:57;17.80;59.20
43651;DHT22;29247;50.944;5.382;2023-03-18T15:47:29;17.80;59.20
43651;DHT22;29247;50.944;5.382;2023-03-18T15:49:59;17.70;59.10
43651;DHT22;29247;50.944;5.382;2023-03-18T15:52:36;17.70;59.20
43651;DHT22;29247;50.944;5.382;2023-03-18T15:55:48;17.60;59.10
43651;DHT22;29247;50.944;5.382;2023-03-18T15:58:26;17.60;59.80
43651;DHT22;29247;50.944;5.382;2023-03-18T16:00:53;17.50;59.10
43651;DHT22;29247;50.944;5.382;2023-03-18T16:03:22;17.50;59.10
43651;DHT22;29247;50.944;5.382;2023-03-18T16:05:52;17.40;59.10
43651;DHT22;29247;50.944;5.382;2023-03-18T16:08:21;17.30;59.10
43651;DHT22;29247;50.944;5.382;2023-03-18T16:10:52;17.20;59.30
43651;DHT22;29247;50.944;5.382;2023-03-18T16:13:32;17.20;59.40
43651;DHT22;29247;50.944;5.382;2023-03-18T16:15:58;17.10;59.60
43651;DHT22;29247;50.944;5.382;2023-03-18T16:18:25;17.10;60.40
43651;DHT22;29247;50.944;5.382;2023-03-18T16:20:51;17.00;59.90
43651;DHT22;29247;50.944;5.382;2023-03-18T16:23:21;17.00;60.00
43651;DHT22;29247;50.944;5.382;2023-03-18T16:25:51;16.90;60.10
43651;DHT22;29247;50.944;5.382;2023-03-18T16:28:21;16.90;60.30
43651;DHT22;29247;50.944;5.382;2023-03-18T16:30:48;16.80;60.40
43651;DHT22;29247;50.944;5.382;2023-03-18T16:33:19;16.80;60.70
43651;DHT22;29247;50.944;5.382;2023-03-18T16:35:54;16.80;60.80
43651;DHT22;29247;50.944;5.382;2023-03-18T16:38:21;16.80;61.10
43651;DHT22;29247;50.944;5.382;2023-03-18T16:40:47;16.70;61.30
43651;DHT22;29247;50.944;5.382;2023-03-18T16:43:25;16.70;61.50
43651;DHT22;29247;50.944;5.382;2023-03-18T16:45:56;16.60;61.60
43651;DHT22;29247;50.944;5.382;2023-03-18T16:48:22;16.70;61.80
43651;DHT22;29247;50.944;5.382;2023-03-18T16:50:49;16.60;61.90
43651;DHT22;29247;50.944;5.382;2023-03-18T16:53:19;16.60;62.00
43651;DHT22;29247;50.944;5.382;2023-03-18T16:55:48;16.60;62.10
43651;DHT22;29247;50.944;5.382;2023-03-18T16:58:16;16.50;62.00
43651;DHT22;29247;50.944;5.382;2023-03-18T17:00:44;16.50;62.10
43651;DHT22;29247;50.944;5.382;2023-03-18T17:03:15;16.50;62.10
43651;DHT22;29247;50.944;5.382;2023-03-18T17:05:43;16.40;62.20
43651;DHT22;29247;50.944;5.382;2023-03-18T17:08:09;16.40;62.40
43651;DHT22;29247;50.944;5.382;2023-03-18T17:10:36;16.40;62.50
43651;DHT22;29247;50.944;5.382;2023-03-18T17:13:05;16.30;62.50
43651;DHT22;29247;50.944;5.382;2023-03-18T17:15:36;16.30;62.80